Story, WY (82842)

4:59 AM MST on March 04, 2015 (GMT -0700)
Thorne Rider & Fish Hatchery | Change Station
CLOSE
Current Station
Personal Weather Station
Location: Story, WY
Elevation: 5373 ft
Nearby Weather Stations

Elev 5373 ft 44.57 °N, 106.92 °W | Updated 6 minutes ago

Overcast
Overcast
3.0 °F
Feels Like -10 °F
N
8.0
Wind Variable Wind from North
Gusts 14.0 mph

Today
High -- | Low -- °F
--% Chance of Precip.
Yesterday
High -- | Low -- °F
Precip. -- in
6:40 AM 5:59 PM
Waxing Gibbous, 99% visible
Pressure 30.35 in
Visibility 10.0 miles
Clouds Scattered Clouds 5500 ft
Overcast 7000 ft
Windchill -10 °F
Dew Point -6.1 °F
Humidity 65%
Rainfall 0.00 in
Snow Depth Not available.
UV 0.0 out of 12
Pollen .40 out of 12
Air Quality Not available.
Flu Activity Not available.
METAR KSHR 041153Z AUTO 34013KT 10SM SCT055 OVC070 M13/M19 A3012 RMK AO2 SLP278 70003 T11331194 11128 21217 53012

More Conditions Fewer Conditions

Pressure 30.35 in
Visibility 10.0 miles
Clouds Scattered Clouds 5500 ft
Overcast 7000 ft
Windchill -10 °F
Dew Point -6.1 °F
Humidity 65%
Rainfall 0.00 in
Snow Depth Not available.
UV 0.0 out of 12
Pollen .40 out of 12
Air Quality Not available.
Flu Activity Not available.
METAR KSHR 041153Z AUTO 34013KT 10SM SCT055 OVC070 M13/M19 A3012 RMK AO2 SLP278 70003 T11331194 11128 21217 53012

More Conditions Fewer Conditions

10-Day Weather Forecast

Almanac

Astronomy

Mar. 04, 2015 Rise Set
Actual Time
Civil Twilight
Nautical Twilight
Astronomical Twilight
Moon
Length of Visible Light
Length of Day
Tomorrow will be .
, % of the Moon is Illuminated

Today's Extremes

State Highs State Lows

Community

WunderPhotos

Upload Photos

1,802,435 photos uploaded!

WunderBlogs® & News

Nearby

Air Quality

  Air Quality AQ Index Pollutant
Not available.

Snow Depth

Station Depth Elevation

Earthquake Activity

City Distance Mag. Time & Date
Minimum magnitude displayed is 2.5.

Coastal Water Temperatures

Place Temperature

Nearby Weather Stations